Terminal Aerodrome Forecast
Issued by NWS Upton, NY

Home | Current Version | Previous Version | Text Only | Print | Product List | Glossary On
Versions: 1 2 3 4 5 6 7 8 9 10 11 12 13 14 15 16 17 18 19 20 21 22 23 24 25 26 27
000
FTUS41 KOKX 031100
TAFBDR
TAF
KBDR 031123Z 0312/0412 32005KT P6SM SCT250
     FM031300 VRB03KT P6SM SCT150 BKN250
     FM031800 16006KT P6SM SCT020 BKN120
     FM032200 17009KT 4SM -SN BKN025 OVC060
     FM040100 17012KT 2SM -SNPL OVC009
     FM040300 19010KT 1SM FZRA OVC004
     FM040500 21008KT 1SM -RA BR OVC004 WS020/24055KT
     FM041100 25005KT 3SM -RA BR OVC007=

USA.gov is the U.S. government's official web portal to all federal, state and local government web resources and services.